createdAt,value
2017-05-30T00:01:03.245Z,23.96
2017-05-30T00:03:29.790Z,22.46
2017-05-30T00:05:56.138Z,25.92
2017-05-30T00:08:22.534Z,27.82
2017-05-30T00:10:48.874Z,25.00
2017-05-30T00:13:15.247Z,26.50
2017-05-30T00:15:41.589Z,26.42
2017-05-30T00:18:08.586Z,25.66
2017-05-30T00:20:35.104Z,27.42
2017-05-30T00:23:01.933Z,29.48
2017-05-30T00:25:29.021Z,29.68
2017-05-30T00:27:55.585Z,30.16
2017-05-30T00:30:21.992Z,29.28
2017-05-30T00:32:48.576Z,26.32
2017-05-30T00:35:14.954Z,31.12
2017-05-30T00:37:41.302Z,28.98
2017-05-30T00:40:07.651Z,30.18
2017-05-30T00:42:34.077Z,27.48
2017-05-30T00:45:00.445Z,30.72
2017-05-30T00:47:26.787Z,31.20
2017-05-30T00:49:53.174Z,28.96
2017-05-30T00:52:19.528Z,29.92
2017-05-30T00:54:45.872Z,31.64
2017-05-30T00:57:12.248Z,32.64
2017-05-30T00:59:38.601Z,32.08
2017-05-30T01:02:04.957Z,31.06
2017-05-30T01:04:31.299Z,33.10
2017-05-30T01:06:57.639Z,32.16
2017-05-30T01:09:23.973Z,32.58
2017-05-30T01:11:50.337Z,31.46
2017-05-30T01:14:16.676Z,30.96
2017-05-30T01:16:43.008Z,30.50
2017-05-30T01:19:09.406Z,30.44
2017-05-30T01:21:35.769Z,28.22
2017-05-30T01:24:02.132Z,27.98
2017-05-30T01:26:28.486Z,28.46
2017-05-30T01:28:54.810Z,26.62
2017-05-30T01:31:21.675Z,28.96
2017-05-30T01:33:53.205Z,29.84
2017-05-30T01:36:19.641Z,29.42
2017-05-30T01:38:49.064Z,25.94
2017-05-30T01:41:15.668Z,28.76
2017-05-30T01:43:47.610Z,27.88
2017-05-30T01:46:14.068Z,28.50
2017-05-30T01:48:45.966Z,32.18
2017-05-30T01:51:12.557Z,31.42
2017-05-30T01:53:39.327Z,35.50
2017-05-30T01:56:05.683Z,37.44
2017-05-30T01:58:33.635Z,37.08
2017-05-30T02:01:01.109Z,31.88
2017-05-30T02:03:33.196Z,39.72
2017-05-30T02:06:04.800Z,45.56
2017-05-30T02:08:31.629Z,42.42
2017-05-30T02:10:58.073Z,47.78
2017-05-30T02:13:25.280Z,46.14
2017-05-30T02:15:56.961Z,44.70
2017-05-30T02:18:23.507Z,50.38
2017-05-30T02:20:49.943Z,53.66
2017-05-30T02:23:19.426Z,52.70
2017-05-30T02:25:45.955Z,52.98
2017-05-30T02:28:12.466Z,48.68
2017-05-30T02:30:45.764Z,57.74
2017-05-30T02:33:12.323Z,62.56
2017-05-30T02:35:39.114Z,60.02
2017-05-30T02:38:10.624Z,60.30
2017-05-30T02:40:42.126Z,62.96
2017-05-30T02:43:08.756Z,64.50
2017-05-30T02:45:40.207Z,57.82
2017-05-30T02:48:07.920Z,66.14
2017-05-30T02:50:40.787Z,65.36
2017-05-30T02:53:07.651Z,61.24
2017-05-30T02:55:34.429Z,55.08
2017-05-30T02:58:00.994Z,65.44
2017-05-30T03:00:27.516Z,61.04
2017-05-30T03:02:53.918Z,62.86
2017-05-30T03:05:23.399Z,62.36
2017-05-30T03:07:49.746Z,60.04
2017-05-30T03:10:16.565Z,62.36
2017-05-30T03:12:42.985Z,60.78
2017-05-30T03:15:12.813Z,62.80
2017-05-30T03:17:40.291Z,56.72
2017-05-30T03:20:11.963Z,54.68
2017-05-30T03:22:44.326Z,57.06
2017-05-30T03:25:10.814Z,54.10
2017-05-30T03:27:42.820Z,61.86
2017-05-30T03:30:09.635Z,57.68
2017-05-30T03:32:41.325Z,58.72
2017-05-30T03:35:08.121Z,63.14
2017-05-30T03:37:34.850Z,63.56
2017-05-30T03:40:06.741Z,67.50
2017-05-30T03:42:34.033Z,61.32
2017-05-30T03:45:00.436Z,65.00
2017-05-30T03:47:31.974Z,66.02
2017-05-30T03:49:58.681Z,68.54
2017-05-30T03:52:25.069Z,67.86
2017-05-30T03:54:54.705Z,65.90
2017-05-30T03:57:21.057Z,63.30
2017-05-30T03:59:48.396Z,64.50
2017-05-30T04:02:14.807Z,59.90
2017-05-30T04:04:46.514Z,66.08
2017-05-30T04:07:13.410Z,62.98
2017-05-30T04:09:45.051Z,65.26
2017-05-30T04:12:11.380Z,63.86
2017-05-30T04:14:43.094Z,63.40
2017-05-30T04:17:14.595Z,61.88
2017-05-30T04:19:41.568Z,59.66
2017-05-30T04:22:07.953Z,57.02
2017-05-30T04:24:35.270Z,55.76
2017-05-30T04:27:02.431Z,56.52
2017-05-30T04:29:28.907Z,55.12
2017-05-30T04:31:55.332Z,53.84
2017-05-30T04:34:29.613Z,51.62
2017-05-30T04:37:01.423Z,52.90
2017-05-30T04:39:27.933Z,49.40
2017-05-30T04:41:59.473Z,45.04
2017-05-30T04:44:25.834Z,49.36
2017-05-30T04:46:58.119Z,49.70
2017-05-30T04:49:24.869Z,38.42
2017-05-30T04:51:51.750Z,43.06
2017-05-30T04:54:23.114Z,40.78
2017-05-30T04:56:49.520Z,46.46
2017-05-30T04:59:15.966Z,44.62
2017-05-30T05:01:47.557Z,40.04
2017-05-30T05:04:20.086Z,45.00
2017-05-30T05:06:50.570Z,44.28
2017-05-30T05:09:16.996Z,37.58
2017-05-30T05:11:48.831Z,43.46
2017-05-30T05:14:20.482Z,40.14
2017-05-30T05:16:46.924Z,45.34
2017-05-30T05:19:16.247Z,40.10
2017-05-30T05:21:42.904Z,42.02
2017-05-30T05:24:09.404Z,38.24
2017-05-30T05:26:41.074Z,39.80
2017-05-30T05:29:07.936Z,37.78
2017-05-30T05:31:35.543Z,37.12
2017-05-30T05:34:07.255Z,37.10
2017-05-30T05:36:33.696Z,41.80
2017-05-30T05:39:03.468Z,38.82
2017-05-30T05:41:30.329Z,34.44
2017-05-30T05:43:57.714Z,32.84
2017-05-30T05:46:24.052Z,37.76
2017-05-30T05:48:50.376Z,35.74
2017-05-30T05:51:16.734Z,36.52
2017-05-30T05:53:43.092Z,35.20
2017-05-30T05:56:09.444Z,35.48
2017-05-30T05:58:35.773Z,33.16
2017-05-30T06:01:02.132Z,33.92
2017-05-30T06:03:28.498Z,35.10
2017-05-30T06:05:54.867Z,33.88
2017-05-30T06:08:21.219Z,33.36
2017-05-30T06:10:47.579Z,33.40
2017-05-30T06:13:13.944Z,30.26
2017-05-30T06:15:40.390Z,31.08
2017-05-30T06:18:06.740Z,29.92
2017-05-30T06:20:33.058Z,31.98
2017-05-30T06:22:59.399Z,33.42
2017-05-30T06:25:25.757Z,32.46
2017-05-30T06:27:52.162Z,30.48
2017-05-30T06:30:18.532Z,27.86
2017-05-30T06:32:44.882Z,28.24
2017-05-30T06:35:11.232Z,26.54
2017-05-30T06:37:37.649Z,25.98
2017-05-30T06:40:03.974Z,29.04
2017-05-30T06:42:30.356Z,26.74
2017-05-30T06:44:56.725Z,27.32
2017-05-30T06:47:23.059Z,27.30
2017-05-30T06:49:49.396Z,27.86
2017-05-30T06:52:15.812Z,31.02
2017-05-30T06:54:42.134Z,28.40
2017-05-30T06:57:08.495Z,27.78
2017-05-30T06:59:34.823Z,26.12
2017-05-30T07:02:01.171Z,25.88
2017-05-30T07:04:27.517Z,25.98
2017-05-30T07:06:53.881Z,24.48
2017-05-30T07:09:20.214Z,26.02
2017-05-30T07:11:46.553Z,25.16
2017-05-30T07:14:12.926Z,24.28
2017-05-30T07:16:39.309Z,22.48
2017-05-30T07:19:05.675Z,22.96
2017-05-30T07:21:32.029Z,21.72
2017-05-30T07:23:58.378Z,20.90
2017-05-30T07:26:24.719Z,21.00
2017-05-30T07:28:51.076Z,20.44
2017-05-30T07:31:17.421Z,19.32
2017-05-30T07:33:43.770Z,18.32
2017-05-30T07:36:10.171Z,16.48
2017-05-30T07:38:36.510Z,18.52
2017-05-30T07:41:02.872Z,16.80
2017-05-30T07:43:29.225Z,15.74
2017-05-30T07:45:55.574Z,16.22
2017-05-30T07:48:21.919Z,18.18
2017-05-30T07:50:48.259Z,16.10
2017-05-30T07:53:14.599Z,18.58
2017-05-30T07:55:40.995Z,17.56
2017-05-30T07:58:07.398Z,17.42
2017-05-30T08:00:33.793Z,15.88
2017-05-30T08:03:00.189Z,14.36
2017-05-30T08:05:26.597Z,17.72
2017-05-30T08:07:53.044Z,15.26
2017-05-30T08:10:19.406Z,15.18
2017-05-30T08:12:45.787Z,13.44
2017-05-30T08:15:12.116Z,14.22
2017-05-30T08:17:38.542Z,16.68
2017-05-30T08:20:04.893Z,15.80
2017-05-30T08:22:31.249Z,14.10
2017-05-30T08:24:57.613Z,13.14
2017-05-30T08:27:24.019Z,12.80
2017-05-30T08:29:50.375Z,14.22
2017-05-30T08:32:16.729Z,13.38
2017-05-30T08:34:58.007Z,13.90
2017-05-30T08:37:24.365Z,12.52
2017-05-30T08:39:50.688Z,15.30
2017-05-30T08:42:17.032Z,14.02
2017-05-30T08:44:43.363Z,13.66
2017-05-30T08:47:09.725Z,12.16
2017-05-30T08:49:36.101Z,8.64
2017-05-30T08:52:02.462Z,7.92
2017-05-30T08:54:28.814Z,9.98
2017-05-30T08:56:55.169Z,9.02
2017-05-30T08:59:21.514Z,10.94
2017-05-30T09:01:47.839Z,8.12
2017-05-30T09:04:14.172Z,11.28
2017-05-30T09:06:40.510Z,11.28
2017-05-30T09:09:06.894Z,13.38
2017-05-30T09:11:33.273Z,12.16
2017-05-30T09:13:59.660Z,14.58
2017-05-30T09:16:25.998Z,14.84
2017-05-30T09:18:52.385Z,15.78
2017-05-30T09:21:18.747Z,14.82
2017-05-30T09:23:45.167Z,13.52
2017-05-30T09:26:11.538Z,11.96
2017-05-30T09:28:37.927Z,14.52
2017-05-30T09:31:04.473Z,14.08
2017-05-30T09:33:30.878Z,17.18
2017-05-30T09:35:57.904Z,18.36
2017-05-30T09:38:24.266Z,15.84
2017-05-30T09:40:50.975Z,18.04
2017-05-30T09:43:17.417Z,17.12
2017-05-30T09:45:43.766Z,17.44
2017-05-30T09:48:10.129Z,18.70
2017-05-30T09:50:36.443Z,18.02
2017-05-30T09:53:02.782Z,19.94
2017-05-30T09:55:29.114Z,19.18
2017-05-30T09:57:55.464Z,20.80
2017-05-30T10:00:21.801Z,21.96
2017-05-30T10:02:48.128Z,22.08
2017-05-30T10:05:14.483Z,21.46
2017-05-30T10:07:40.857Z,19.40
2017-05-30T10:10:07.233Z,20.58
2017-05-30T10:12:33.549Z,19.76
2017-05-30T10:14:59.871Z,18.06
2017-05-30T10:17:26.230Z,17.54
2017-05-30T10:19:52.549Z,17.66
2017-05-30T10:22:18.893Z,19.04
2017-05-30T10:24:45.230Z,19.64
2017-05-30T10:27:11.559Z,17.30
2017-05-30T10:29:37.859Z,16.74
2017-05-30T10:32:04.244Z,18.40
2017-05-30T10:34:30.567Z,19.42
2017-05-30T10:36:56.936Z,19.22
2017-05-30T10:39:23.330Z,15.82
2017-05-30T10:41:49.648Z,16.34
2017-05-30T10:44:16.052Z,15.10
2017-05-30T10:46:42.890Z,15.58
2017-05-30T10:49:09.275Z,17.68
2017-05-30T10:51:35.625Z,14.30
2017-05-30T10:54:01.977Z,15.10
2017-05-30T10:56:28.319Z,14.40
2017-05-30T10:58:54.692Z,16.58
2017-05-30T11:01:21.027Z,15.10
2017-05-30T11:03:47.399Z,16.80
2017-05-30T11:06:13.707Z,15.40
2017-05-30T11:08:40.048Z,20.10
2017-05-30T11:11:06.400Z,23.92
2017-05-30T11:13:32.746Z,25.80
2017-05-30T11:15:59.062Z,23.58
2017-05-30T11:18:25.410Z,22.02
2017-05-30T11:20:51.737Z,22.48
2017-05-30T11:23:18.114Z,22.92
2017-05-30T11:25:44.447Z,18.04
2017-05-30T11:28:10.758Z,15.46
2017-05-30T11:30:37.090Z,19.14
2017-05-30T11:33:03.607Z,21.32
2017-05-30T11:35:29.944Z,21.40
2017-05-30T11:37:56.273Z,21.98
2017-05-30T11:40:22.629Z,20.92
2017-05-30T11:42:48.932Z,21.02
2017-05-30T11:45:15.732Z,17.10
2017-05-30T11:47:42.079Z,16.58
2017-05-30T11:50:08.463Z,16.60
2017-05-30T11:52:34.796Z,16.30
2017-05-30T11:55:01.127Z,15.70
2017-05-30T11:57:27.463Z,15.18
2017-05-30T11:59:53.945Z,15.26
2017-05-30T12:02:20.289Z,12.80
2017-05-30T12:04:46.655Z,12.70
2017-05-30T12:07:13.022Z,12.80
2017-05-30T12:09:39.379Z,11.38
2017-05-30T12:12:05.765Z,14.16
2017-05-30T12:14:32.119Z,13.80
2017-05-30T12:16:58.460Z,12.34
2017-05-30T12:19:24.805Z,15.46
2017-05-30T12:21:51.123Z,15.86
2017-05-30T12:24:17.449Z,15.84
2017-05-30T12:26:43.808Z,14.32
2017-05-30T12:29:10.169Z,13.06
2017-05-30T12:31:36.520Z,11.90
2017-05-30T12:34:02.874Z,12.64
2017-05-30T12:36:29.197Z,11.88
2017-05-30T12:38:55.546Z,12.60
2017-05-30T12:41:21.891Z,12.84
2017-05-30T12:43:48.249Z,12.98
2017-05-30T12:46:14.605Z,15.10
2017-05-30T12:48:40.955Z,16.78
2017-05-30T12:51:07.278Z,13.82
2017-05-30T12:53:33.626Z,13.18
2017-05-30T12:56:00.030Z,13.88
2017-05-30T12:58:26.379Z,14.88
2017-05-30T13:00:52.743Z,14.44
2017-05-30T13:03:19.101Z,15.22
2017-05-30T13:05:45.464Z,16.28
2017-05-30T13:08:11.803Z,14.48
2017-05-30T13:10:38.159Z,15.84
2017-05-30T13:13:04.491Z,15.86
2017-05-30T13:15:30.823Z,16.42
2017-05-30T13:17:57.159Z,19.80
2017-05-30T13:20:23.522Z,17.26
2017-05-30T13:22:49.877Z,18.94
2017-05-30T13:25:16.221Z,20.08
2017-05-30T13:27:42.563Z,20.42
2017-05-30T13:30:08.908Z,21.08
2017-05-30T13:32:35.293Z,21.22
2017-05-30T13:35:01.644Z,21.96
2017-05-30T13:37:27.979Z,21.58
2017-05-30T13:39:54.311Z,22.98
2017-05-30T13:42:20.649Z,22.70
2017-05-30T13:44:46.981Z,23.08
2017-05-30T13:47:13.288Z,26.36
2017-05-30T13:49:39.620Z,25.90
2017-05-30T13:52:05.970Z,23.60
2017-05-30T13:54:32.280Z,27.70
2017-05-30T13:56:58.660Z,28.04
2017-05-30T13:59:25.013Z,29.32
2017-05-30T14:01:51.381Z,30.46
2017-05-30T14:04:17.745Z,27.84
2017-05-30T14:06:44.115Z,30.46
2017-05-30T14:09:10.460Z,27.60
2017-05-30T14:11:36.798Z,28.70
2017-05-30T14:14:03.158Z,29.60
2017-05-30T14:16:29.467Z,25.60
2017-05-30T14:18:55.797Z,26.86
2017-05-30T14:21:22.141Z,25.24
2017-05-30T14:23:48.475Z,27.46
2017-05-30T14:26:14.845Z,27.70
2017-05-30T14:28:41.191Z,25.24
2017-05-30T14:31:07.511Z,25.70
2017-05-30T14:33:33.850Z,24.68
2017-05-30T14:36:00.191Z,24.82
2017-05-30T14:38:26.550Z,18.86
2017-05-30T14:40:52.909Z,17.74
2017-05-30T14:43:19.270Z,16.94
2017-05-30T14:45:45.580Z,13.22
2017-05-30T14:48:11.913Z,11.32
2017-05-30T14:50:38.257Z,11.36
2017-05-30T14:53:04.581Z,8.88
2017-05-30T14:55:30.924Z,8.22
2017-05-30T14:57:57.245Z,7.18
2017-05-30T15:00:23.599Z,7.46
2017-05-30T15:02:49.938Z,7.32
2017-05-30T15:05:16.293Z,6.58
2017-05-30T15:07:42.647Z,6.72
2017-05-30T15:10:09.030Z,6.08
2017-05-30T15:12:35.958Z,6.52
2017-05-30T15:15:02.330Z,5.74
2017-05-30T15:17:28.661Z,5.78
2017-05-30T15:19:55.071Z,5.46
2017-05-30T15:22:21.401Z,5.72
2017-05-30T15:24:47.734Z,5.88
2017-05-30T15:27:14.180Z,5.10
2017-05-30T15:29:40.563Z,5.76
2017-05-30T15:32:06.901Z,4.92
2017-05-30T15:34:33.241Z,4.78
2017-05-30T15:36:59.584Z,4.72
2017-05-30T15:39:26.447Z,4.40
2017-05-30T15:41:53.963Z,4.02
2017-05-30T15:44:20.348Z,4.00
2017-05-30T15:46:46.869Z,3.64
2017-05-30T15:49:13.548Z,4.00
2017-05-30T15:51:40.303Z,3.82
2017-05-30T15:54:06.854Z,3.74
2017-05-30T15:56:33.678Z,3.72
2017-05-30T15:59:00.231Z,2.92
2017-05-30T16:01:27.107Z,3.52
2017-05-30T16:03:53.467Z,3.50
2017-05-30T16:06:21.322Z,2.84
2017-05-30T16:08:48.529Z,3.44
2017-05-30T16:11:15.680Z,3.00
2017-05-30T16:13:42.867Z,3.22
2017-05-30T16:16:09.878Z,3.04
2017-05-30T16:18:36.963Z,2.92
2017-05-30T16:21:03.369Z,2.84
2017-05-30T16:23:30.552Z,3.44
2017-05-30T16:25:56.942Z,2.92
2017-05-30T16:28:23.980Z,3.22
2017-05-30T16:30:50.393Z,3.22
2017-05-30T16:33:17.494Z,3.16
2017-05-30T16:35:44.476Z,3.28
2017-05-30T16:38:10.871Z,3.04
2017-05-30T16:40:37.657Z,3.38
2017-05-30T16:43:04.368Z,3.08
2017-05-30T16:45:30.895Z,2.72
2017-05-30T16:47:57.911Z,3.12
2017-05-30T16:50:26.337Z,2.44
2017-05-30T16:52:52.907Z,2.96
2017-05-30T16:55:19.739Z,2.58
2017-05-30T16:57:46.211Z,2.56
2017-05-30T17:00:12.687Z,2.70
2017-05-30T17:02:39.019Z,2.64
2017-05-30T17:05:05.384Z,3.28
2017-05-30T17:07:31.798Z,3.58
2017-05-30T17:09:58.144Z,3.58
2017-05-30T17:12:24.503Z,3.48
2017-05-30T17:14:50.852Z,3.32
2017-05-30T17:17:17.292Z,3.04
2017-05-30T17:19:43.655Z,3.18
2017-05-30T17:22:09.993Z,3.50
2017-05-30T17:24:36.350Z,3.28
2017-05-30T17:27:02.711Z,3.94
2017-05-30T17:29:29.351Z,4.16
2017-05-30T17:31:55.899Z,3.88
2017-05-30T17:34:22.780Z,3.52
2017-05-30T17:36:49.179Z,3.18
2017-05-30T17:39:15.576Z,4.16
2017-05-30T17:41:42.691Z,5.64
2017-05-30T17:44:09.044Z,7.24
2017-05-30T17:46:35.875Z,6.74
2017-05-30T17:49:02.252Z,7.18
2017-05-30T17:51:29.449Z,8.40
2017-05-30T17:53:55.858Z,7.54
2017-05-30T17:56:22.194Z,7.52
2017-05-30T17:58:48.519Z,9.54
2017-05-30T18:01:14.876Z,9.90
2017-05-30T18:03:41.203Z,10.13
2017-05-30T18:06:07.495Z,12.34
2017-05-30T18:08:33.830Z,13.78
2017-05-30T18:11:00.159Z,13.58
2017-05-30T18:13:26.521Z,14.06
2017-05-30T18:15:52.915Z,15.80
2017-05-30T18:18:19.978Z,16.78
2017-05-30T18:20:46.869Z,17.06
2017-05-30T18:23:14.105Z,16.96
2017-05-30T18:25:41.224Z,16.62
2017-05-30T18:28:07.735Z,15.36
2017-05-30T18:30:34.791Z,17.74
2017-05-30T18:33:01.162Z,18.54
2017-05-30T18:35:28.119Z,17.06
2017-05-30T18:37:54.497Z,16.96
2017-05-30T18:40:20.906Z,16.14
2017-05-30T18:42:47.599Z,17.22
2017-05-30T18:45:13.987Z,14.22
2017-05-30T18:47:40.331Z,15.68
2017-05-30T18:50:06.718Z,17.84
2017-05-30T18:52:33.062Z,13.92
2017-05-30T18:54:59.484Z,14.14
2017-05-30T18:57:25.823Z,13.34
2017-05-30T18:59:52.350Z,13.48
2017-05-30T19:02:18.765Z,13.52
2017-05-30T19:04:45.137Z,13.70
2017-05-30T19:07:12.209Z,12.40
2017-05-30T19:09:38.651Z,12.94
2017-05-30T19:12:05.034Z,12.72
2017-05-30T19:14:31.390Z,14.68
2017-05-30T19:16:57.760Z,12.42
2017-05-30T19:19:24.089Z,10.70
2017-05-30T19:21:50.446Z,12.40
2017-05-30T19:24:16.807Z,12.10
2017-05-30T19:26:43.700Z,11.68
2017-05-30T19:29:10.238Z,11.92
2017-05-30T19:31:36.773Z,10.80
2017-05-30T19:34:03.168Z,10.86
2017-05-30T19:36:29.630Z,10.98
2017-05-30T19:38:56.345Z,10.44
2017-05-30T19:41:23.317Z,11.52
2017-05-30T19:43:49.813Z,9.92
2017-05-30T19:46:16.160Z,10.32
2017-05-30T19:48:43.261Z,9.90
2017-05-30T19:51:09.677Z,9.16
2017-05-30T19:53:36.027Z,9.58
2017-05-30T19:56:02.367Z,8.68
2017-05-30T19:58:28.703Z,9.06
2017-05-30T20:00:55.092Z,8.08
2017-05-30T20:03:21.500Z,7.74
2017-05-30T20:05:47.855Z,9.38
2017-05-30T20:08:14.229Z,8.42
2017-05-30T20:10:40.618Z,7.94
2017-05-30T20:13:06.948Z,8.80
2017-05-30T20:15:33.341Z,8.56
2017-05-30T20:18:00.495Z,9.08
2017-05-30T20:20:27.199Z,7.96
2017-05-30T20:22:53.648Z,9.54
2017-05-30T20:25:20.750Z,8.46
2017-05-30T20:27:47.117Z,9.72
2017-05-30T20:30:13.515Z,9.58
2017-05-30T20:32:39.845Z,8.66
2017-05-30T20:35:06.216Z,8.84
2017-05-30T20:37:32.653Z,9.32
2017-05-30T20:39:59.026Z,8.24
2017-05-30T20:42:25.470Z,7.88
2017-05-30T20:44:51.834Z,8.66
2017-05-30T20:47:18.179Z,8.76
2017-05-30T20:49:44.582Z,8.72
2017-05-30T20:52:10.959Z,7.90
2017-05-30T20:54:37.320Z,7.54
2017-05-30T20:57:04.271Z,7.40
2017-05-30T20:59:30.655Z,8.76
2017-05-30T21:01:57.023Z,7.48
2017-05-30T21:04:23.346Z,7.46
2017-05-30T21:06:49.694Z,7.60
2017-05-30T21:09:16.129Z,7.86
2017-05-30T21:11:42.456Z,7.56
2017-05-30T21:14:08.798Z,7.64
2017-05-30T21:16:35.148Z,6.54
2017-05-30T21:19:02.737Z,6.20
2017-05-30T21:21:29.115Z,7.56
2017-05-30T21:23:55.443Z,7.26
2017-05-30T21:26:21.828Z,7.00
2017-05-30T21:28:48.151Z,7.94
2017-05-30T21:31:14.543Z,7.48
2017-05-30T21:33:40.896Z,6.72
2017-05-30T21:36:07.235Z,8.20
2017-05-30T21:38:33.645Z,7.46
2017-05-30T21:41:00.005Z,7.44
2017-05-30T21:43:26.326Z,6.72
2017-05-30T21:45:52.751Z,7.40
2017-05-30T21:48:19.084Z,7.40
2017-05-30T21:50:45.419Z,6.60
2017-05-30T21:53:11.796Z,7.62
2017-05-30T21:55:38.190Z,6.90
2017-05-30T21:58:04.518Z,7.06
2017-05-30T22:00:30.837Z,6.08
2017-05-30T22:02:58.335Z,6.46
2017-05-30T22:05:24.719Z,6.20
2017-05-30T22:07:51.082Z,6.20
2017-05-30T22:10:17.408Z,5.30
2017-05-30T22:12:43.753Z,5.52
2017-05-30T22:15:10.087Z,5.08
2017-05-30T22:17:36.549Z,5.00
2017-05-30T22:20:02.986Z,5.16
2017-05-30T22:22:29.335Z,4.58
2017-05-30T22:24:55.670Z,5.28
2017-05-30T22:27:22.000Z,4.68
2017-05-30T22:29:48.369Z,4.50
2017-05-30T22:32:14.694Z,4.50
2017-05-30T22:34:41.013Z,4.28
2017-05-30T22:37:07.347Z,4.42
2017-05-30T22:39:33.719Z,5.48
2017-05-30T22:42:00.058Z,4.96
2017-05-30T22:44:26.403Z,5.02
2017-05-30T22:46:52.752Z,4.38
2017-05-30T22:49:19.129Z,5.30
2017-05-30T22:51:45.453Z,4.50
2017-05-30T22:54:11.773Z,4.34
2017-05-30T22:56:38.201Z,4.48
2017-05-30T22:59:04.520Z,4.56
2017-05-30T23:01:30.884Z,5.08
2017-05-30T23:03:57.212Z,4.12
2017-05-30T23:06:23.532Z,4.48
2017-05-30T23:08:49.876Z,4.10
2017-05-30T23:11:16.213Z,4.38
2017-05-30T23:13:42.553Z,4.06
2017-05-30T23:16:08.930Z,4.60
2017-05-30T23:18:35.273Z,4.54
2017-05-30T23:21:01.606Z,4.42
2017-05-30T23:23:27.910Z,4.94
2017-05-30T23:25:54.255Z,4.80
2017-05-30T23:28:20.633Z,4.66
2017-05-30T23:30:46.935Z,4.60
2017-05-30T23:33:13.268Z,4.58
2017-05-30T23:35:39.666Z,4.68
2017-05-30T23:38:05.970Z,4.64
2017-05-30T23:40:32.335Z,5.72
2017-05-30T23:42:58.744Z,4.60
2017-05-30T23:45:25.171Z,5.10
2017-05-30T23:47:51.805Z,5.00
2017-05-30T23:50:18.185Z,4.38
2017-05-30T23:52:44.591Z,4.54
2017-05-30T23:55:10.996Z,5.00
2017-05-30T23:57:37.638Z,4.60
